createdAt,value
2023-02-23T00:01:55.252Z,27.00
2023-02-23T00:04:24.623Z,32.55
2023-02-23T00:06:53.487Z,28.77
2023-02-23T00:09:26.116Z,23.10
2023-02-23T00:11:55.960Z,30.47
2023-02-23T00:14:27.901Z,34.70
2023-02-23T00:16:56.477Z,26.70
2023-02-23T00:19:25.130Z,27.92
2023-02-23T00:21:53.728Z,39.20
2023-02-23T00:24:26.821Z,29.40
2023-02-23T00:26:54.814Z,39.75
2023-02-23T00:29:24.448Z,33.05
2023-02-23T00:31:53.444Z,33.47
2023-02-23T00:34:23.558Z,32.55
2023-02-23T00:36:54.207Z,36.53
2023-02-23T00:39:26.734Z,38.10
2023-02-23T00:41:55.829Z,33.42
2023-02-23T00:44:25.419Z,37.85
2023-02-23T00:46:53.939Z,37.65
2023-02-23T00:49:23.416Z,41.95
2023-02-23T00:51:52.240Z,34.25
2023-02-23T00:54:21.580Z,29.02
2023-02-23T00:56:51.390Z,29.55
2023-02-23T00:59:20.191Z,31.08
2023-02-23T01:01:48.159Z,28.23
2023-02-23T01:04:16.733Z,33.25
2023-02-23T01:06:46.220Z,31.67
2023-02-23T01:09:27.185Z,28.65
2023-02-23T01:11:57.770Z,30.45
2023-02-23T01:14:26.244Z,25.55
2023-02-23T01:16:54.247Z,34.25
2023-02-23T01:19:22.500Z,38.72
2023-02-23T01:21:50.544Z,33.05
2023-02-23T01:24:18.981Z,39.10
2023-02-23T01:26:47.350Z,26.80
2023-02-23T01:29:18.744Z,32.78
2023-02-23T01:31:51.114Z,36.70
2023-02-23T01:34:21.697Z,41.73
2023-02-23T01:36:49.942Z,31.73
2023-02-23T01:39:20.678Z,29.30
2023-02-23T01:41:48.741Z,38.50
2023-02-23T01:44:50.422Z,35.67
2023-02-23T01:47:20.868Z,33.97
2023-02-23T01:49:50.987Z,30.02
2023-02-23T01:52:20.781Z,39.58
2023-02-23T01:54:52.910Z,36.08
2023-02-23T01:57:25.204Z,35.67
2023-02-23T01:59:54.762Z,31.35
2023-02-23T02:02:33.597Z,37.80
2023-02-23T02:05:05.159Z,28.10
2023-02-23T02:07:36.188Z,34.45
2023-02-23T02:10:33.700Z,23.17
2023-02-23T02:13:05.853Z,36.13
2023-02-23T02:15:39.182Z,32.28
2023-02-23T02:21:18.808Z,37.67
2023-02-23T02:24:08.196Z,37.55
2023-02-23T02:26:47.281Z,35.92
2023-02-23T02:29:44.832Z,30.20
2023-02-23T02:32:57.059Z,40.22
2023-02-23T02:35:50.577Z,38.55
2023-02-23T02:38:31.650Z,38.00
2023-02-23T02:41:05.522Z,33.90
2023-02-23T02:43:43.699Z,46.53
2023-02-23T02:46:17.450Z,36.03
2023-02-23T02:48:52.515Z,34.33
2023-02-23T02:51:25.196Z,32.72
2023-02-23T02:54:07.169Z,31.63
2023-02-23T02:56:40.384Z,46.90
2023-02-23T02:59:31.205Z,38.50
2023-02-23T03:02:17.553Z,36.97
2023-02-23T03:05:03.403Z,33.72
2023-02-23T03:07:57.103Z,33.90
2023-02-23T03:13:49.578Z,38.45
2023-02-23T03:16:44.088Z,39.22
2023-02-23T03:19:35.509Z,41.20
2023-02-23T03:22:32.293Z,36.58
2023-02-23T03:25:24.456Z,41.38
2023-02-23T03:28:15.478Z,30.40
2023-02-23T03:31:10.096Z,35.78
2023-02-23T03:34:03.437Z,37.88
2023-02-23T03:36:54.509Z,34.47
2023-02-23T03:39:46.520Z,42.15
2023-02-23T03:42:38.033Z,38.28
2023-02-23T03:45:30.494Z,40.13
2023-02-23T03:48:18.278Z,25.15
2023-02-23T03:51:09.463Z,45.80
2023-02-23T03:54:03.579Z,33.97
2023-02-23T03:56:52.409Z,38.45
2023-02-23T03:59:42.032Z,34.45
2023-02-23T04:02:31.272Z,33.22
2023-02-23T04:05:20.615Z,34.30
2023-02-23T04:08:10.916Z,38.45
2023-02-23T04:11:12.727Z,37.58
2023-02-23T04:13:41.342Z,26.83
2023-02-23T04:16:10.422Z,37.28
2023-02-23T04:18:40.647Z,40.08
2023-02-23T04:21:09.100Z,39.55
2023-02-23T04:23:40.617Z,36.28
2023-02-23T04:26:08.511Z,38.97
2023-02-23T04:28:36.517Z,35.63
2023-02-23T04:31:04.518Z,37.47
2023-02-23T04:33:32.533Z,41.15
2023-02-23T04:36:01.771Z,40.40
2023-02-23T04:38:29.608Z,43.78
2023-02-23T04:40:57.435Z,45.05
2023-02-23T04:43:25.273Z,35.03
2023-02-23T04:45:53.357Z,36.78
2023-02-23T04:48:21.245Z,40.33
2023-02-23T04:50:52.700Z,37.60
2023-02-23T04:53:21.899Z,40.72
2023-02-23T04:55:49.832Z,45.40
2023-02-23T04:58:17.784Z,36.10
2023-02-23T05:00:45.646Z,41.60
2023-02-23T05:03:13.824Z,40.47
2023-02-23T05:05:41.691Z,37.28
2023-02-23T05:08:09.598Z,36.20
2023-02-23T05:10:40.383Z,39.40
2023-02-23T05:13:08.493Z,44.70
2023-02-23T05:15:37.127Z,34.72
2023-02-23T05:18:05.033Z,38.80
2023-02-23T05:20:32.923Z,40.35
2023-02-23T05:23:00.863Z,37.88
2023-02-23T05:25:28.723Z,43.42
2023-02-23T05:27:57.951Z,45.17
2023-02-23T05:30:25.935Z,33.67
2023-02-23T05:32:53.786Z,33.80
2023-02-23T05:35:21.668Z,31.48
2023-02-23T05:37:49.565Z,41.50
2023-02-23T05:40:17.531Z,43.08
2023-02-23T05:42:45.401Z,41.20
2023-02-23T05:45:14.674Z,37.22
2023-02-23T05:47:42.604Z,36.83
2023-02-23T05:50:12.440Z,40.10
2023-02-23T05:52:41.981Z,32.90
2023-02-23T05:55:12.610Z,45.72
2023-02-23T05:57:41.170Z,39.63
2023-02-23T06:00:11.863Z,38.88
2023-02-23T06:02:41.759Z,36.75
2023-02-23T06:05:10.800Z,41.67
2023-02-23T06:07:38.840Z,41.10
2023-02-23T06:10:07.784Z,39.15
2023-02-23T06:12:36.432Z,37.17
2023-02-23T06:15:04.679Z,40.88
2023-02-23T06:17:32.534Z,35.47
2023-02-23T06:20:03.469Z,43.22
2023-02-23T06:22:31.400Z,29.02
2023-02-23T06:24:59.317Z,36.67
2023-02-23T06:27:27.256Z,32.45
2023-02-23T06:29:55.113Z,37.78
2023-02-23T06:32:23.066Z,40.30
2023-02-23T06:34:52.429Z,42.35
2023-02-23T06:37:21.654Z,43.50
2023-02-23T06:39:50.469Z,42.63
2023-02-23T06:42:18.487Z,38.58
2023-02-23T06:44:46.423Z,35.45
2023-02-23T06:47:14.337Z,33.78
2023-02-23T06:49:42.565Z,43.42
2023-02-23T06:52:13.525Z,42.65
2023-02-23T06:54:42.973Z,36.90
2023-02-23T06:57:11.186Z,31.60
2023-02-23T06:59:39.255Z,38.47
2023-02-23T07:02:07.451Z,47.83
2023-02-23T07:04:35.362Z,34.28
2023-02-23T07:07:03.641Z,39.50
2023-02-23T07:09:31.602Z,37.95
2023-02-23T07:12:00.967Z,28.10
2023-02-23T07:14:29.289Z,34.30
2023-02-23T07:16:57.121Z,44.05
2023-02-23T07:19:25.004Z,39.22
2023-02-23T07:21:53.569Z,30.50
2023-02-23T07:24:21.945Z,36.58
2023-02-23T07:26:50.188Z,39.40
2023-02-23T07:29:20.001Z,39.50
2023-02-23T07:31:50.055Z,36.22
2023-02-23T07:34:18.051Z,36.08
2023-02-23T07:36:45.924Z,41.78
2023-02-23T07:39:13.939Z,35.63
2023-02-23T07:41:41.801Z,41.20
2023-02-23T07:44:20.225Z,32.53
2023-02-23T07:46:48.181Z,43.83
2023-02-23T07:49:16.115Z,41.38
2023-02-23T07:51:44.002Z,34.75
2023-02-23T07:54:11.882Z,41.47
2023-02-23T07:56:40.552Z,37.67
2023-02-23T07:59:08.474Z,33.03
2023-02-23T08:01:37.729Z,35.97
2023-02-23T08:04:05.920Z,36.90
2023-02-23T08:06:33.808Z,38.03
2023-02-23T08:09:03.176Z,30.58
2023-02-23T08:11:31.123Z,35.83
2023-02-23T08:14:00.303Z,36.00
2023-02-23T08:16:28.713Z,32.10
2023-02-23T08:18:59.643Z,40.70
2023-02-23T08:21:29.276Z,39.63
2023-02-23T08:23:57.829Z,41.97
2023-02-23T08:26:26.057Z,30.90
2023-02-23T08:28:54.319Z,34.92
2023-02-23T08:31:27.530Z,40.53
2023-02-23T08:33:59.824Z,38.80
2023-02-23T08:36:27.777Z,37.53
2023-02-23T08:38:55.835Z,37.38
2023-02-23T08:41:24.053Z,34.75
2023-02-23T08:43:51.931Z,29.45
2023-02-23T08:46:20.581Z,39.80
2023-02-23T08:48:48.531Z,34.20
2023-02-23T08:51:18.235Z,32.47
2023-02-23T08:53:46.472Z,39.63
2023-02-23T08:56:15.321Z,41.40
2023-02-23T08:58:43.853Z,33.80
2023-02-23T09:01:18.476Z,39.22
2023-02-23T09:03:46.678Z,34.97
2023-02-23T09:06:20.052Z,36.55
2023-02-23T09:08:48.454Z,39.15
2023-02-23T09:11:16.489Z,33.33
2023-02-23T09:13:45.030Z,38.75
2023-02-23T09:16:13.044Z,33.50
2023-02-23T09:18:41.749Z,36.13
2023-02-23T09:21:18.925Z,35.20
2023-02-23T09:23:51.218Z,34.60
2023-02-23T09:26:19.980Z,33.08
2023-02-23T09:28:48.117Z,35.47
2023-02-23T09:31:18.423Z,30.63
2023-02-23T09:33:46.774Z,36.00
2023-02-23T09:36:17.278Z,34.88
2023-02-23T09:38:45.370Z,34.25
2023-02-23T09:41:46.974Z,32.97
2023-02-23T09:44:26.333Z,42.75
2023-02-23T09:47:04.204Z,29.38
2023-02-23T09:49:36.034Z,41.00
2023-02-23T09:52:06.006Z,37.50
2023-02-23T09:54:36.772Z,36.35
2023-02-23T09:57:13.452Z,30.45
2023-02-23T09:59:41.867Z,32.97
2023-02-23T10:02:21.738Z,36.80
2023-02-23T10:04:53.817Z,38.25
2023-02-23T10:10:07.444Z,36.72
2023-02-23T10:12:46.941Z,36.28
2023-02-23T10:15:26.331Z,37.55
2023-02-23T10:18:04.164Z,32.15
2023-02-23T10:20:38.441Z,36.47
2023-02-23T10:23:13.109Z,29.70
2023-02-23T10:25:47.746Z,34.47
2023-02-23T10:28:21.533Z,37.72
2023-02-23T10:30:51.198Z,29.80
2023-02-23T10:33:25.256Z,29.67
2023-02-23T10:36:12.619Z,33.67
2023-02-23T10:38:41.097Z,33.03
2023-02-23T10:41:12.140Z,31.73
2023-02-23T10:43:43.359Z,32.93
2023-02-23T10:46:20.842Z,32.40
2023-02-23T10:48:50.350Z,39.72
2023-02-23T10:51:22.893Z,34.47
2023-02-23T10:53:52.855Z,36.00
2023-02-23T10:56:22.406Z,33.83
2023-02-23T10:58:53.081Z,33.90
2023-02-23T11:01:36.230Z,35.85
2023-02-23T11:04:14.577Z,32.10
2023-02-23T11:06:44.569Z,35.72
2023-02-23T11:09:41.878Z,34.08
2023-02-23T11:12:22.056Z,36.03
2023-02-23T11:14:52.827Z,33.53
2023-02-23T11:17:31.996Z,33.15
2023-02-23T11:20:02.723Z,29.83
2023-02-23T11:22:37.208Z,33.97
2023-02-23T11:25:16.649Z,40.50
2023-02-23T11:27:51.363Z,32.90
2023-02-23T11:30:24.567Z,34.58
2023-02-23T11:32:54.013Z,39.90
2023-02-23T11:35:31.858Z,45.05
2023-02-23T11:37:59.811Z,36.90
2023-02-23T11:40:29.567Z,35.70
2023-02-23T11:43:01.073Z,41.85
2023-02-23T11:45:34.537Z,42.17
2023-02-23T11:48:04.608Z,35.83
2023-02-23T11:50:35.559Z,32.50
2023-02-23T11:53:06.769Z,35.45
2023-02-23T11:55:37.832Z,31.38
2023-02-23T11:58:11.736Z,31.95
2023-02-23T12:00:41.419Z,31.20
2023-02-23T12:03:22.931Z,39.70
2023-02-23T12:05:53.240Z,34.80
2023-02-23T12:08:31.339Z,34.75
2023-02-23T12:11:01.701Z,35.03
2023-02-23T12:13:34.905Z,37.38
2023-02-23T12:16:11.416Z,39.72
2023-02-23T12:18:47.824Z,32.90
2023-02-23T12:21:25.220Z,39.00
2023-02-23T12:24:04.355Z,28.85
2023-02-23T12:26:35.090Z,32.88
2023-02-23T12:29:21.428Z,33.03
2023-02-23T12:31:55.390Z,31.88
2023-02-23T12:34:28.055Z,33.45
2023-02-23T12:37:00.483Z,38.33
2023-02-23T12:39:33.868Z,32.93
2023-02-23T12:44:42.707Z,37.08
2023-02-23T12:47:22.596Z,36.15
2023-02-23T12:49:57.434Z,36.30
2023-02-23T12:52:30.517Z,35.55
2023-02-23T12:54:58.557Z,34.13
2023-02-23T12:57:38.690Z,31.40
2023-02-23T13:00:35.843Z,35.38
2023-02-23T13:03:28.364Z,33.00
2023-02-23T13:06:03.383Z,27.23
2023-02-23T13:08:42.854Z,37.53
2023-02-23T13:11:21.111Z,33.97
2023-02-23T13:13:55.625Z,37.10
2023-02-23T13:16:31.692Z,31.45
2023-02-23T13:19:16.418Z,36.20
2023-02-23T13:21:53.904Z,35.65
2023-02-23T13:24:25.269Z,30.67
2023-02-23T13:27:00.289Z,33.50
2023-02-23T13:29:35.215Z,37.88
2023-02-23T13:32:06.126Z,29.20
2023-02-23T13:34:40.790Z,31.35
2023-02-23T13:37:10.775Z,33.63
2023-02-23T13:39:56.722Z,35.03
2023-02-23T13:42:37.503Z,35.50
2023-02-23T13:45:35.393Z,36.10
2023-02-23T13:48:12.973Z,34.10
2023-02-23T13:50:49.169Z,34.17
2023-02-23T13:53:38.436Z,37.33
2023-02-23T13:56:08.598Z,43.08
2023-02-23T13:58:37.263Z,36.90
2023-02-23T14:01:19.005Z,33.65
2023-02-23T14:03:54.367Z,31.65
2023-02-23T14:06:26.084Z,33.25
2023-02-23T14:09:00.832Z,33.17
2023-02-23T14:11:31.024Z,40.67
2023-02-23T14:14:01.830Z,40.75
2023-02-23T14:16:29.977Z,35.05
2023-02-23T14:19:10.909Z,37.85
2023-02-23T14:21:46.913Z,43.50
2023-02-23T14:24:19.417Z,46.00
2023-02-23T14:27:12.777Z,37.33
2023-02-23T14:29:41.896Z,38.75
2023-02-23T14:32:31.279Z,38.67
2023-02-23T14:35:00.552Z,38.28
2023-02-23T14:37:33.132Z,37.60
2023-02-23T14:40:14.508Z,41.00
2023-02-23T14:42:47.080Z,40.88
2023-02-23T14:45:20.507Z,42.40
2023-02-23T14:47:52.162Z,41.35
2023-02-23T14:50:27.005Z,45.72
2023-02-23T14:52:57.378Z,40.97
2023-02-23T14:55:29.203Z,41.70
2023-02-23T14:57:58.360Z,44.85
2023-02-23T15:00:28.454Z,43.83
2023-02-23T15:03:00.109Z,46.35
2023-02-23T15:05:30.573Z,55.17
2023-02-23T15:08:07.088Z,51.25
2023-02-23T15:10:39.276Z,53.70
2023-02-23T15:13:11.870Z,52.40
2023-02-23T15:15:45.426Z,46.77
2023-02-23T15:18:22.686Z,48.28
2023-02-23T15:20:51.702Z,42.13
2023-02-23T15:23:21.996Z,51.30
2023-02-23T15:25:51.222Z,46.92
2023-02-23T15:28:25.273Z,46.42
2023-02-23T15:30:54.411Z,50.38
2023-02-23T15:33:28.410Z,50.15
2023-02-23T15:36:03.848Z,50.70
2023-02-23T15:38:43.399Z,49.25
2023-02-23T15:41:23.166Z,50.70
2023-02-23T15:43:51.265Z,53.00
2023-02-23T15:46:24.702Z,62.20
2023-02-23T15:48:54.830Z,54.10
2023-02-23T15:51:33.876Z,48.55
2023-02-23T15:54:07.877Z,51.42
2023-02-23T15:56:36.402Z,56.35
2023-02-23T15:59:12.958Z,55.17
2023-02-23T16:01:44.932Z,47.55
2023-02-23T16:04:19.280Z,58.72
2023-02-23T16:06:53.138Z,59.53
2023-02-23T16:09:30.071Z,55.63
2023-02-23T16:12:03.212Z,62.63
2023-02-23T16:14:36.242Z,64.38
2023-02-23T16:17:11.469Z,65.43
2023-02-23T16:19:41.714Z,65.25
2023-02-23T16:22:21.367Z,63.50
2023-02-23T16:24:58.936Z,66.95
2023-02-23T16:27:28.994Z,70.90
2023-02-23T16:30:00.206Z,73.03
2023-02-23T16:32:36.392Z,63.13
2023-02-23T16:35:15.342Z,70.65
2023-02-23T16:37:59.130Z,69.63
2023-02-23T16:40:28.907Z,74.72
2023-02-23T16:42:59.546Z,76.10
2023-02-23T16:45:29.659Z,76.85
2023-02-23T16:48:02.081Z,70.13
2023-02-23T16:50:30.650Z,77.55
2023-02-23T16:52:58.654Z,85.05
2023-02-23T16:55:29.517Z,73.35
2023-02-23T16:58:00.424Z,80.43
2023-02-23T17:00:30.468Z,86.13
2023-02-23T17:03:00.584Z,83.93
2023-02-23T17:05:30.145Z,84.32
2023-02-23T17:07:59.021Z,86.90
2023-02-23T17:10:32.264Z,81.88
2023-02-23T17:13:04.431Z,78.18
2023-02-23T17:15:34.876Z,80.68
2023-02-23T17:18:02.953Z,80.70
2023-02-23T17:20:32.663Z,86.28
2023-02-23T17:23:02.382Z,86.75
2023-02-23T17:25:31.970Z,85.60
2023-02-23T17:28:01.813Z,78.07
2023-02-23T17:30:30.533Z,83.25
2023-02-23T17:33:00.426Z,82.63
2023-02-23T17:35:33.649Z,88.57
2023-02-23T17:38:01.938Z,89.40
2023-02-23T17:40:34.641Z,88.75
2023-02-23T17:43:04.693Z,82.90
2023-02-23T17:45:32.994Z,89.72
2023-02-23T17:48:00.900Z,87.28
2023-02-23T17:50:29.219Z,84.60
2023-02-23T17:52:57.851Z,83.03
2023-02-23T17:55:26.160Z,98.53
2023-02-23T17:57:55.440Z,89.70
2023-02-23T18:00:25.067Z,90.90
2023-02-23T18:02:53.123Z,89.60
2023-02-23T18:05:21.667Z,91.72
2023-02-23T18:07:49.634Z,81.95
2023-02-23T18:10:17.792Z,90.43
2023-02-23T18:12:46.056Z,90.60
2023-02-23T18:15:15.400Z,85.22
2023-02-23T18:17:43.330Z,91.57
2023-02-23T18:20:15.018Z,93.05
2023-02-23T18:22:43.656Z,94.30
2023-02-23T18:25:21.416Z,99.65
2023-02-23T18:27:53.934Z,84.20
2023-02-23T18:30:24.687Z,100.73
2023-02-23T18:32:53.346Z,89.88
2023-02-23T18:35:21.881Z,88.80
2023-02-23T18:37:49.933Z,94.57
2023-02-23T18:40:24.839Z,90.30
2023-02-23T18:42:52.827Z,86.03
2023-02-23T18:45:20.694Z,82.65
2023-02-23T18:47:50.151Z,89.30
2023-02-23T18:50:19.605Z,89.75
2023-02-23T18:52:48.896Z,77.25
2023-02-23T18:55:16.910Z,86.90
2023-02-23T18:57:45.310Z,78.10
2023-02-23T19:00:15.769Z,81.32
2023-02-23T19:02:46.361Z,84.32
2023-02-23T19:05:20.160Z,84.57
2023-02-23T19:07:49.067Z,85.35
2023-02-23T19:10:17.371Z,78.50
2023-02-23T19:12:45.266Z,84.10
2023-02-23T19:15:13.633Z,77.47
2023-02-23T19:17:41.489Z,79.38
2023-02-23T19:20:13.667Z,87.50
2023-02-23T19:22:43.942Z,77.23
2023-02-23T19:25:14.279Z,84.35
2023-02-23T19:27:42.767Z,79.90
2023-02-23T19:30:11.911Z,78.30
2023-02-23T19:32:40.671Z,84.28
2023-02-23T19:35:14.679Z,78.93
2023-02-23T19:37:51.009Z,73.53
2023-02-23T19:40:22.866Z,75.82
2023-02-23T19:42:52.788Z,76.85
2023-02-23T19:45:21.854Z,76.60
2023-02-23T19:47:52.664Z,70.85
2023-02-23T19:50:20.707Z,70.22
2023-02-23T19:52:50.453Z,67.28
2023-02-23T19:55:20.258Z,66.95
2023-02-23T19:57:48.287Z,70.25
2023-02-23T20:00:16.888Z,64.28
2023-02-23T20:02:44.794Z,62.78
2023-02-23T20:05:14.438Z,54.08
2023-02-23T20:07:43.242Z,50.08
2023-02-23T20:10:16.439Z,45.38
2023-02-23T20:12:44.820Z,42.17
2023-02-23T20:15:14.698Z,39.13
2023-02-23T20:17:42.635Z,47.42
2023-02-23T20:20:12.188Z,51.63
2023-02-23T20:22:41.400Z,48.63
2023-02-23T20:25:16.005Z,57.53
2023-02-23T20:27:45.689Z,57.65
2023-02-23T20:30:14.545Z,53.60
2023-02-23T20:32:42.649Z,53.53
2023-02-23T20:35:13.102Z,65.70
2023-02-23T20:37:41.182Z,69.35
2023-02-23T20:40:16.510Z,64.85
2023-02-23T20:42:47.844Z,56.72
2023-02-23T20:45:17.953Z,63.13
2023-02-23T20:47:46.901Z,69.53
2023-02-23T20:50:15.944Z,63.28
2023-02-23T20:52:45.913Z,69.30
2023-02-23T20:55:18.919Z,68.68
2023-02-23T20:57:49.039Z,70.20
2023-02-23T21:00:22.603Z,69.50
2023-02-23T21:02:55.459Z,70.20
2023-02-23T21:05:25.283Z,69.47
2023-02-23T21:07:53.913Z,66.18
2023-02-23T21:10:21.925Z,84.00
2023-02-23T21:12:53.018Z,79.18
2023-02-23T21:15:20.919Z,67.55
2023-02-23T21:17:50.430Z,78.88
2023-02-23T21:20:20.676Z,75.00
2023-02-23T21:22:50.168Z,85.10
2023-02-23T21:25:19.422Z,71.47
2023-02-23T21:27:47.880Z,86.70
2023-02-23T21:30:19.435Z,75.55
2023-02-23T21:32:48.314Z,66.32
2023-02-23T21:35:16.740Z,76.88
2023-02-23T21:37:44.696Z,78.32
2023-02-23T21:40:17.365Z,81.78
2023-02-23T21:42:45.311Z,72.35
2023-02-23T21:45:14.124Z,68.50
2023-02-23T21:47:45.583Z,69.78
2023-02-23T21:50:15.629Z,71.03
2023-02-23T21:52:45.685Z,77.97
2023-02-23T21:55:21.289Z,78.85
2023-02-23T21:57:50.769Z,70.47
2023-02-23T22:00:19.158Z,71.68
2023-02-23T22:02:48.904Z,68.80
2023-02-23T22:05:18.250Z,70.28
2023-02-23T22:07:49.428Z,74.78
2023-02-23T22:10:18.019Z,67.50
2023-02-23T22:12:45.898Z,71.45
2023-02-23T22:15:15.814Z,71.32
2023-02-23T22:17:44.146Z,68.95
2023-02-23T22:20:14.547Z,72.47
2023-02-23T22:22:42.873Z,75.40
2023-02-23T22:25:11.440Z,71.47
2023-02-23T22:27:41.583Z,78.07
2023-02-23T22:30:12.217Z,79.38
2023-02-23T22:32:40.768Z,77.97
2023-02-23T22:35:09.414Z,74.30
2023-02-23T22:37:39.358Z,74.00
2023-02-23T22:40:13.371Z,75.15
2023-02-23T22:42:43.264Z,61.85
2023-02-23T22:45:12.229Z,75.47
2023-02-23T22:47:40.090Z,79.85
2023-02-23T22:50:12.029Z,76.47
2023-02-23T22:52:43.099Z,71.20
2023-02-23T22:55:13.120Z,65.43
2023-02-23T22:57:41.123Z,75.47
2023-02-23T23:00:12.495Z,65.20
2023-02-23T23:02:40.603Z,68.82
2023-02-23T23:05:09.520Z,69.22
2023-02-23T23:07:37.399Z,67.93
2023-02-23T23:10:09.320Z,64.22
2023-02-23T23:12:37.995Z,68.55
2023-02-23T23:15:14.610Z,62.33
2023-02-23T23:17:48.084Z,65.15
2023-02-23T23:20:17.658Z,60.38
2023-02-23T23:22:45.609Z,69.35
2023-02-23T23:25:15.709Z,65.43
2023-02-23T23:27:45.811Z,59.05
2023-02-23T23:30:15.423Z,61.42
2023-02-23T23:32:43.528Z,56.35
2023-02-23T23:35:13.588Z,63.88
2023-02-23T23:37:41.627Z,61.33
2023-02-23T23:40:14.681Z,65.95
2023-02-23T23:42:46.470Z,53.55
2023-02-23T23:45:16.233Z,54.00
2023-02-23T23:47:45.034Z,67.20
2023-02-23T23:50:14.137Z,50.53
2023-02-23T23:52:44.471Z,67.55
2023-02-23T23:55:14.590Z,51.95
2023-02-23T23:57:44.307Z,55.85
